Time;durP1;ratioP1;P1;durP2;ratioP2;P2;SDS_P1;SDS_P2;PMS_P1;PMS_P2;Temp;Humidity;BMP_temperature;BMP_pressure;BME280_temperature;BME280_humidity;BME280_pressure;Samples;Min_cycle;Max_cycle;Signal;HPM_P1;HPM_P2
2022/05/30 00:09:04;;;;;;;;;;;;;;;;;;;;;
2022/05/30 00:20:58;;;;;;;;;;;;;;;;;;;;;
2022/05/30 00:29:51;;;;;;;;;;;;;;;;;;;;;
2022/05/30 00:32:44;;;;;;;;;;;;;;;;;;;;;
2022/05/30 00:41:31;;;;;;;;;2.00;1.00;;;;;;;;6217014;22;45420;-79
2022/05/30 00:47:16;;;;;;;;;3.75;3.00;;;;;;;;6207256;22;46339;-79
2022/05/30 00:53:03;;;;;;;;;;;;;;;;;;;;;
2022/05/30 00:55:49;;;;;;;;;3.00;3.00;;;;;;;;6206174;22;72828;-78
2022/05/30 00:58:47;;;;;;;;;;;;;;;;;;;;;
2022/05/30 01:01:28;;;;;;;;;3.00;3.00;;;;;;;;6215656;22;72923;-79
2022/05/30 01:07:03;;;;;;;;;;;;;;;;;;;;;
2022/05/30 01:12:54;;;;;;;;;;;;;;;;;;;;;
2022/05/30 01:15:52;;;;;;;;;;;;;;;;;;;;;
2022/05/30 01:18:30;;;;;;;;;;;;;;;;;;;;;
2022/05/30 01:21:31;;;;;;;;;;;;;;;;;;;;;
2022/05/30 01:31:25;;;;;;;;;;;;;;;;;;;;;
2022/05/30 01:36:59;;;;;;;;;;;;;;;;;;;;;
2022/05/30 01:39:35;;;;;;;;;;;;;;;;;;;;;
2022/05/30 01:42:31;;;;;;;;;;;;;;;;;;;;;
2022/05/30 01:48:29;;;;;;;;;3.00;3.00;;;;;;;;6153329;22;45608;-79
2022/05/30 01:51:13;;;;;;;;;4.00;2.25;;;;;;;;6215299;22;45307;-79
2022/05/30 01:53:47;;;;;;;;;4.00;4.00;;;;;;;;6216103;22;46111;-79
2022/05/30 02:05:14;;;;;;;;;3.75;3.75;;;;;;;;6215775;22;45992;-78
2022/05/30 02:07:58;;;;;;;;;;;;;;;;;;;;;
2022/05/30 02:10:43;;;;;;;;;2.75;2.75;;;;;;;;6215386;22;72261;-78
2022/05/30 02:13:23;;;;;;;;;;;;;;;;;;;;;
2022/05/30 02:19:09;;;;;;;;;3.00;3.00;;;;;;;;6217620;22;45193;-79
2022/05/30 02:21:47;;;;;;;;;;;;;;;;;;;;;
2022/05/30 02:27:11;;;;;;;;;5.00;5.00;;;;;;;;6195667;22;46023;-79
2022/05/30 02:30:15;;;;;;;;;5.50;3.00;;;;;;;;6217020;22;45592;-79
2022/05/30 02:32:52;;;;;;;;;;;;;;;;;;;;;
2022/05/30 02:38:39;;;;;;;;;2.00;2.00;;;;;;;;6217398;22;45245;-79
2022/05/30 02:41:34;;;;;;;;;;;;;;;;;;;;;
2022/05/30 02:44:26;;;;;;;;;5.75;2.75;;;;;;;;6216631;22;71922;-79
2022/05/30 02:47:21;;;;;;;;;;;;;;;;;;;;;
2022/05/30 02:50:16;;;;;;;;;;;;;;;;;;;;;
2022/05/30 02:53:02;;;;;;;;;2.75;2.00;;;;;;;;6216498;22;75134;-78
2022/05/30 02:56:08;;;;;;;;;3.00;3.00;;;;;;;;6217723;22;45415;-78
2022/05/30 02:58:40;;;;;;;;;4.75;4.75;;;;;;;;6215772;22;45388;-79
2022/05/30 03:01:23;;;;;;;;;;;;;;;;;;;;;
2022/05/30 03:04:04;;;;;;;;;;;;;;;;;;;;;
2022/05/30 03:06:35;;;;;;;;;7.25;4.50;;;;;;;;6216302;22;71287;-79
2022/05/30 03:09:19;;;;;;;;;;;;;;;;;;;;;
2022/05/30 03:14:45;;;;;;;;;5.00;3.75;;;;;;;;6200219;22;45933;-79
2022/05/30 03:17:18;;;;;;;;;4.50;3.00;;;;;;;;6217711;22;45399;-79
2022/05/30 03:20:07;;;;;;;;;5.25;4.50;;;;;;;;6217100;22;45266;-79
2022/05/30 03:22:56;;;;;;;;;5.50;4.00;;;;;;;;6217304;22;45456;-79
2022/05/30 03:25:24;;;;;;;;;4.50;4.00;;;;;;;;6216042;22;46790;-78
2022/05/30 03:27:56;;;;;;;;;4.50;4.00;;;;;;;;6217264;22;45367;-79
2022/05/30 03:30:44;;;;;;;;;4.00;3.75;;;;;;;;6217643;22;45404;-78
2022/05/30 03:33:37;;;;;;;;;6.00;4.00;;;;;;;;6189880;22;45499;-78
2022/05/30 03:36:46;;;;;;;;;2.50;2.00;;;;;;;;6217166;22;45332;-78
2022/05/30 03:42:14;;;;;;;;;4.00;3.00;;;;;;;;6217435;22;45344;-78
2022/05/30 03:44:45;;;;;;;;;7.50;4.00;;;;;;;;6216958;22;45249;-78
2022/05/30 03:47:13;;;;;;;;;7.00;4.75;;;;;;;;6217404;22;45437;-78
2022/05/30 03:49:51;;;;;;;;;;;;;;;;;;;;;
2022/05/30 03:52:33;;;;;;;;;7.50;4.50;;;;;;;;6216520;22;67422;-78
2022/05/30 03:55:08;;;;;;;;;6.00;4.00;;;;;;;;6190252;22;45440;-78
2022/05/30 03:57:43;;;;;;;;;;;;;;;;;;;;;
2022/05/30 04:06:08;;;;;;;;;;;;;;;;;;;;;
2022/05/30 04:08:54;;;;;;;;;5.00;5.00;;;;;;;;6215520;22;75353;-78
2022/05/30 04:11:24;;;;;;;;;4.50;4.50;;;;;;;;6216241;22;45457;-78
2022/05/30 04:13:49;;;;;;;;;6.75;5.00;;;;;;;;6217020;22;45256;-78
2022/05/30 04:16:33;;;;;;;;;;;;;;;;;;;;;
2022/05/30 04:19:07;;;;;;;;;6.00;4.00;;;;;;;;6215603;22;74620;-78
2022/05/30 04:21:58;;;;;;;;;6.75;4.25;;;;;;;;6217194;22;45198;-78
2022/05/30 04:24:36;;;;;;;;;;;;;;;;;;;;;
2022/05/30 04:27:21;;;;;;;;;;;;;;;;;;;;;
2022/05/30 04:29:48;;;;;;;;;8.75;5.00;;;;;;;;6215160;22;75295;-78
2022/05/30 04:32:24;;;;;;;;;;;;;;;;;;;;;
2022/05/30 04:35:04;;;;;;;;;10.75;5.50;;;;;;;;6215360;22;67815;-78
2022/05/30 04:37:38;;;;;;;;;8.50;6.25;;;;;;;;6215671;22;45352;-78
2022/05/30 04:40:09;;;;;;;;;5.75;5.75;;;;;;;;6217150;22;45368;-78
2022/05/30 04:42:43;;;;;;;;;9.00;5.25;;;;;;;;6217171;22;45179;-78
2022/05/30 04:45:19;;;;;;;;;6.00;5.00;;;;;;;;6189336;22;45420;-78
2022/05/30 04:50:59;;;;;;;;;9.25;5.75;;;;;;;;6210201;22;46099;-78
2022/05/30 04:53:35;;;;;;;;;;;;;;;;;;;;;
2022/05/30 04:56:19;;;;;;;;;6.25;4.75;;;;;;;;6216320;22;68725;-78
2022/05/30 04:58:47;;;;;;;;;5.50;5.00;;;;;;;;6217082;22;45261;-78
2022/05/30 05:01:33;;;;;;;;;;;;;;;;;;;;;
2022/05/30 05:04:02;;;;;;;;;7.25;3.75;;;;;;;;6214996;22;72877;-78
2022/05/30 05:06:45;;;;;;;;;;;;;;;;;;;;;
2022/05/30 05:09:25;;;;;;;;;15.00;6.50;;;;;;;;6215182;22;72982;-78
2022/05/30 05:12:08;;;;;;;;;;;;;;;;;;;;;
2022/05/30 05:14:49;;;;;;;;;9.00;5.50;;;;;;;;6214835;22;73025;-78
2022/05/30 05:17:27;;;;;;;;;;;;;;;;;;;;;
2022/05/30 05:19:58;;;;;;;;;10.00;6.25;;;;;;;;6212269;22;72280;-78
2022/05/30 05:22:26;;;;;;;;;8.25;6.00;;;;;;;;6187988;22;47164;-78
2022/05/30 05:24:51;;;;;;;;;5.75;4.50;;;;;;;;6185377;22;45404;-78
2022/05/30 05:27:17;;;;;;;;;8.00;4.75;;;;;;;;6215063;22;45396;-78
2022/05/30 05:29:42;;;;;;;;;11.50;6.25;;;;;;;;6215303;22;45432;-78
2022/05/30 05:32:28;;;;;;;;;7.75;6.25;;;;;;;;6188781;22;46885;-78
2022/05/30 05:35:00;;;;;;;;;6.25;6.00;;;;;;;;6215132;22;45585;-78
2022/05/30 05:53:13;;;;;;;;;12.00;8.25;;;;;;;;6231212;22;47279;-77
2022/05/30 05:56:01;;;;;;;;;9.50;5.50;;;;;;;;6219661;22;45704;-77
2022/05/30 05:58:59;;;;;;;;;8.25;5.75;;;;;;;;6233682;22;45482;-77
2022/05/30 06:17:02;;;;;;;;;5.75;5.25;;;;;;;;5976018;23;46010;-78
2022/05/30 06:38:56;;;;;;;;;5.00;5.00;;;;;;;;6196564;22;47091;-77
2022/05/30 06:41:39;;;;;;;;;8.25;6.75;;;;;;;;6244686;22;45292;-78
2022/05/30 06:44:06;;;;;;;;;8.25;6.00;;;;;;;;6217683;22;45278;-77
2022/05/30 06:46:33;;;;;;;;;11.75;6.50;;;;;;;;6244695;22;45769;-77
2022/05/30 06:48:59;;;;;;;;;7.25;6.00;;;;;;;;6200045;22;48147;-76
2022/05/30 06:51:25;;;;;;;;;10.25;8.50;;;;;;;;6216960;22;45395;-77
2022/05/30 06:53:52;;;;;;;;;15.25;7.75;;;;;;;;6217543;22;45341;-77
2022/05/30 06:56:19;;;;;;;;;9.25;7.75;;;;;;;;6215793;22;45357;-77
2022/05/30 06:58:45;;;;;;;;;15.00;8.50;;;;;;;;6189168;22;46121;-78
2022/05/30 07:01:11;;;;;;;;;11.50;6.25;;;;;;;;6189712;22;45980;-78
2022/05/30 07:03:37;;;;;;;;;10.50;6.75;;;;;;;;6216626;22;45320;-78
2022/05/30 07:06:09;;;;;;;;;12.00;8.75;;;;;;;;6216855;22;45461;-78
2022/05/30 07:08:35;;;;;;;;;12.25;7.00;;;;;;;;6216607;22;45328;-77
2022/05/30 07:11:01;;;;;;;;;12.00;6.00;;;;;;;;6216158;22;45244;-78
2022/05/30 07:13:27;;;;;;;;;7.00;7.00;;;;;;;;6217343;22;45256;-78
2022/05/30 07:15:52;;;;;;;;;5.25;5.25;;;;;;;;6216535;22;45427;-78
2022/05/30 07:18:19;;;;;;;;;6.50;6.50;;;;;;;;6216412;22;45354;-78
2022/05/30 07:20:44;;;;;;;;;6.25;5.25;;;;;;;;6216446;22;45382;-78
2022/05/30 07:23:10;;;;;;;;;6.00;5.50;;;;;;;;6215457;22;45423;-78
2022/05/30 07:25:36;;;;;;;;;7.75;4.00;;;;;;;;6214730;22;45360;-78
2022/05/30 07:28:02;;;;;;;;;9.25;4.75;;;;;;;;6216027;22;46242;-79
2022/05/30 07:30:27;;;;;;;;;4.75;4.75;;;;;;;;6188950;22;45385;-79
2022/05/30 07:32:54;;;;;;;;;6.75;5.00;;;;;;;;6215484;22;45329;-78
2022/05/30 07:35:19;;;;;;;;;5.75;4.00;;;;;;;;6216461;22;45306;-79
2022/05/30 07:37:44;;;;;;;;;6.50;5.75;;;;;;;;6217307;22;46433;-79
2022/05/30 07:40:13;;;;;;;;;3.00;3.00;;;;;;;;6187488;22;45263;-79
2022/05/30 10:51:38;;;;;;;;;;;;;;;;;;;;;
2022/05/30 11:30:50;;;;;;;;;2.00;1.00;;;;;;;;6034144;23;45680;-79
2022/05/30 13:29:45;;;;;;;;;;;;;;;;;;;;;
2022/05/30 15:14:57;;;;;;;;;3.00;3.00;;;;;;;;6199023;22;46193;-80
2022/05/30 17:03:31;;;;;;;;;3.25;3.25;;;;;;;;6224149;22;45473;-80
2022/05/30 17:12:28;;;;;;;;;;;;;;;;;;;;;
2022/05/30 17:15:09;;;;;;;;;5.00;3.50;;;;;;;;6215204;22;72950;-79
2022/05/30 17:17:40;;;;;;;;;4.00;3.00;;;;;;;;6216826;22;45460;-80
2022/05/30 17:20:21;;;;;;;;;;;;;;;;;;;;;
2022/05/30 17:23:25;;;;;;;;;3.00;3.00;;;;;;;;6215449;22;75313;-79
2022/05/30 17:32:11;;;;;;;;;6.00;3.50;;;;;;;;6216066;22;45350;-79
2022/05/30 17:35:03;;;;;;;;;4.00;3.75;;;;;;;;6216827;22;45627;-79
2022/05/30 17:40:30;;;;;;;;;3.00;1.50;;;;;;;;6204158;22;45384;-79
2022/05/30 17:42:57;;;;;;;;;4.00;3.00;;;;;;;;6217469;22;45349;-79
2022/05/30 17:45:31;;;;;;;;;5.25;5.00;;;;;;;;6216281;22;45352;-78
2022/05/30 17:51:26;;;;;;;;;4.75;3.50;;;;;;;;6203896;22;45604;-77
2022/05/30 17:54:01;;;;;;;;;5.25;3.00;;;;;;;;6217677;22;45319;-78
2022/05/30 17:56:28;;;;;;;;;3.00;3.00;;;;;;;;6217796;22;45334;-78
2022/05/30 17:58:58;;;;;;;;;6.50;5.25;;;;;;;;6217220;22;45362;-77
2022/05/30 18:01:34;;;;;;;;;3.50;3.50;;;;;;;;6217120;22;45412;-78
2022/05/30 18:04:00;;;;;;;;;5.00;5.00;;;;;;;;6216217;22;45393;-78
2022/05/30 18:06:50;;;;;;;;;5.25;4.00;;;;;;;;6190312;22;47950;-78
2022/05/30 18:09:21;;;;;;;;;5.00;4.25;;;;;;;;6195029;22;45187;-78
2022/05/30 18:12:15;;;;;;;;;3.25;2.75;;;;;;;;6215249;22;45435;-78
2022/05/30 18:14:41;;;;;;;;;2.50;2.50;;;;;;;;6216750;22;45312;-77
2022/05/30 18:17:33;;;;;;;;;3.00;3.00;;;;;;;;6189607;22;46910;-78
2022/05/30 18:20:00;;;;;;;;;4.25;2.00;;;;;;;;6206414;22;45619;-77
2022/05/30 18:22:43;;;;;;;;;6.25;4.00;;;;;;;;6217892;22;45889;-78
2022/05/30 18:25:13;;;;;;;;;4.50;4.50;;;;;;;;6217528;22;45471;-78
2022/05/30 18:27:48;;;;;;;;;3.00;3.00;;;;;;;;6217589;22;45366;-78
2022/05/30 18:30:14;;;;;;;;;5.50;4.00;;;;;;;;6189188;22;45663;-77
2022/05/30 18:32:54;;;;;;;;;4.00;4.00;;;;;;;;6217347;22;45218;-78
2022/05/30 18:35:37;;;;;;;;;3.75;3.75;;;;;;;;6216875;22;45277;-77
2022/05/30 18:38:28;;;;;;;;;6.25;3.75;;;;;;;;6217065;22;45214;-78
2022/05/30 18:40:58;;;;;;;;;7.25;4.50;;;;;;;;6065354;23;45303;-78
2022/05/30 18:43:35;;;;;;;;;4.25;3.75;;;;;;;;6065784;23;45479;-78
2022/05/30 18:46:10;;;;;;;;;4.25;3.00;;;;;;;;6065849;23;45767;-79
2022/05/30 18:49:09;;;;;;;;;;;;;;;;;;;;;
2022/05/30 18:55:04;;;;;;;;;5.50;5.00;;;;;;;;6202176;22;45480;-79
2022/05/30 19:01:32;;;;;;;;;;;;;;;;;;;;;
2022/05/30 19:26:11;;;;;;;;;4.00;3.00;;;;;;;;6184214;22;46041;-79
2022/05/30 19:28:58;;;;;;;;;7.50;5.75;;;;;;;;6188819;22;45565;-79
2022/05/30 19:34:51;;;;;;;;;;;;;;;;;;;;;
2022/05/30 19:37:44;;;;;;;;;6.50;4.00;;;;;;;;6215535;22;74609;-79
2022/05/30 19:40:23;;;;;;;;;5.75;5.00;;;;;;;;6172561;22;45412;-80
2022/05/30 19:43:01;;;;;;;;;;;;;;;;;;;;;
2022/05/30 19:45:39;;;;;;;;;6.00;6.00;;;;;;;;6214929;22;72874;-79
2022/05/30 19:51:54;;;;;;;;;7.00;5.00;;;;;;;;6159346;22;45865;-79
2022/05/30 19:54:19;;;;;;;;;3.00;3.00;;;;;;;;6216597;22;45207;-79
2022/05/30 19:56:44;;;;;;;;;6.00;4.50;;;;;;;;6214345;22;45628;-80
2022/05/30 20:05:08;;;;;;;;;4.25;3.25;;;;;;;;6200040;22;45455;-80
2022/05/30 20:07:51;;;;;;;;;6.00;2.75;;;;;;;;6215813;22;45416;-80
2022/05/30 20:10:18;;;;;;;;;3.50;3.50;;;;;;;;6188759;22;46529;-80
2022/05/30 20:13:09;;;;;;;;;4.00;4.00;;;;;;;;6189200;22;45337;-81
2022/05/30 20:15:55;;;;;;;;;5.25;4.50;;;;;;;;6189006;22;45388;-81
2022/05/30 20:21:26;;;;;;;;;5.50;3.50;;;;;;;;6215925;22;45911;-80
2022/05/30 20:23:53;;;;;;;;;4.00;2.75;;;;;;;;6216918;22;45261;-80
2022/05/30 20:26:20;;;;;;;;;3.50;3.50;;;;;;;;6216599;22;45236;-80
2022/05/30 20:28:45;;;;;;;;;3.75;3.75;;;;;;;;6189208;22;45489;-80
2022/05/30 20:31:11;;;;;;;;;5.00;3.00;;;;;;;;6184915;22;46806;-80
2022/05/30 20:33:45;;;;;;;;;4.75;4.75;;;;;;;;6216303;22;45304;-80
2022/05/30 20:36:11;;;;;;;;;4.00;4.00;;;;;;;;6188841;22;45334;-80
2022/05/30 20:38:37;;;;;;;;;4.00;3.00;;;;;;;;6216780;22;45174;-80
2022/05/30 20:44:29;;;;;;;;;7.50;5.00;;;;;;;;6215351;22;45855;-81
2022/05/30 20:47:34;;;;;;;;;;;;;;;;;;;;;
2022/05/30 20:50:01;;;;;;;;;5.50;4.00;;;;;;;;6207442;22;72028;-80
2022/05/30 20:52:43;;;;;;;;;4.00;3.75;;;;;;;;6216307;22;45399;-80
2022/05/30 20:55:38;;;;;;;;;4.00;4.00;;;;;;;;6213672;22;45452;-80
2022/05/30 20:58:28;;;;;;;;;6.00;4.25;;;;;;;;6213765;22;45607;-80
2022/05/30 21:01:32;;;;;;;;;4.25;3.25;;;;;;;;6142853;22;45701;-80
2022/05/30 21:04:36;;;;;;;;;;;;;;;;;;;;;
2022/05/30 21:35:54;;;;;;;;;;;;;;;;;;;;;
2022/05/30 21:45:25;;;;;;;;;;;;;;;;;;;;;
2022/05/30 21:48:20;;;;;;;;;;;;;;;;;;;;;
2022/05/30 22:00:09;;;;;;;;;;;;;;;;;;;;;
2022/05/30 22:03:07;;;;;;;;;;;;;;;;;;;;;
2022/05/30 22:08:52;;;;;;;;;4.75;4.75;;;;;;;;6198107;22;45427;-79
2022/05/30 22:17:33;;;;;;;;;;;;;;;;;;;;;
2022/05/30 22:20:16;;;;;;;;;;;;;;;;;;;;;
2022/05/30 22:22:57;;;;;;;;;4.25;2.25;;;;;;;;6214387;22;72966;-79
2022/05/30 22:25:44;;;;;;;;;;;;;;;;;;;;;
2022/05/30 22:30:56;;;;;;;;;9.50;7.75;;;;;;;;6189955;22;45304;-79
2022/05/30 22:33:24;;;;;;;;;5.25;5.25;;;;;;;;6216207;22;45233;-79
2022/05/30 22:35:51;;;;;;;;;7.75;5.25;;;;;;;;6189203;22;47828;-79
2022/05/30 22:38:17;;;;;;;;;3.25;3.25;;;;;;;;6216525;22;45272;-79
2022/05/30 22:40:45;;;;;;;;;4.00;4.00;;;;;;;;6217649;22;45296;-79
2022/05/30 22:43:32;;;;;;;;;;;;;;;;;;;;;
2022/05/30 22:46:10;;;;;;;;;;;;;;;;;;;;;
2022/05/30 22:48:48;;;;;;;;;3.00;3.00;;;;;;;;6215286;22;73083;-79
2022/05/30 22:52:05;;;;;;;;;;;;;;;;;;;;;
2022/05/30 22:54:49;;;;;;;;;3.00;3.00;;;;;;;;6210570;22;45190;-79
2022/05/30 22:57:16;;;;;;;;;4.75;2.75;;;;;;;;6216072;22;46726;-78
2022/05/30 22:59:47;;;;;;;;;3.00;3.00;;;;;;;;6216298;22;45310;-78
2022/05/30 23:02:30;;;;;;;;;;;;;;;;;;;;;
2022/05/30 23:05:11;;;;;;;;;3.00;3.00;;;;;;;;6215083;22;71830;-78
2022/05/30 23:07:41;;;;;;;;;3.00;3.00;;;;;;;;6216086;22;45521;-78
2022/05/30 23:10:23;;;;;;;;;3.00;3.00;;;;;;;;6216541;22;45301;-79
2022/05/30 23:15:41;;;;;;;;;4.00;4.00;;;;;;;;6198411;22;46471;-78
2022/05/30 23:21:14;;;;;;;;;4.50;3.50;;;;;;;;6199904;22;45329;-78
2022/05/30 23:24:21;;;;;;;;;6.50;3.00;;;;;;;;6189058;22;45204;-79
2022/05/30 23:26:45;;;;;;;;;4.00;3.00;;;;;;;;6210851;22;45436;-78
2022/05/30 23:29:14;;;;;;;;;2.00;2.00;;;;;;;;6215785;22;45987;-78
2022/05/30 23:31:39;;;;;;;;;2.75;2.75;;;;;;;;6216321;22;45336;-78
2022/05/30 23:34:07;;;;;;;;;2.75;2.75;;;;;;;;6216031;22;45475;-78
2022/05/30 23:36:33;;;;;;;;;3.50;3.50;;;;;;;;6215157;22;45209;-78
2022/05/30 23:39:07;;;;;;;;;1.50;1.50;;;;;;;;6214717;22;46174;-78
2022/05/30 23:44:35;;;;;;;;;3.00;3.00;;;;;;;;6215005;22;45341;-78
2022/05/30 23:47:27;;;;;;;;;3.25;2.25;;;;;;;;6214386;22;45321;-78
2022/05/30 23:50:07;;;;;;;;;;;;;;;;;;;;;
2022/05/30 23:52:32;;;;;;;;;3.75;3.00;;;;;;;;6214962;22;73315;-78
2022/05/30 23:55:18;;;;;;;;;2.50;2.50;;;;;;;;6216164;22;45357;-78
2022/05/30 23:57:46;;;;;;;;;2.50;2.00;;;;;;;;6189722;22;45186;-78
